createdAt,value
2018-01-06T00:02:11.827Z,91.00
2018-01-06T00:04:39.239Z,91.10
2018-01-06T00:07:07.464Z,91.10
2018-01-06T00:09:34.880Z,91.10
2018-01-06T00:12:02.397Z,91.10
2018-01-06T00:14:29.811Z,91.10
2018-01-06T00:16:57.338Z,91.10
2018-01-06T00:19:25.495Z,91.10
2018-01-06T00:21:53.730Z,91.20
2018-01-06T00:24:21.143Z,91.20
2018-01-06T00:26:49.339Z,90.90
2018-01-06T00:29:17.520Z,91.20
2018-01-06T00:31:45.709Z,91.20
2018-01-06T00:34:13.896Z,91.20
2018-01-06T00:36:41.408Z,91.20
2018-01-06T00:39:08.812Z,91.20
2018-01-06T00:41:36.240Z,91.20
2018-01-06T00:44:03.703Z,91.20
2018-01-06T00:46:31.132Z,91.30
2018-01-06T00:48:58.567Z,91.20
2018-01-06T00:51:26.804Z,91.30
2018-01-06T00:53:55.067Z,91.10
2018-01-06T00:56:22.504Z,91.10
2018-01-06T00:58:49.921Z,91.10
2018-01-06T01:01:17.333Z,91.10
2018-01-06T01:03:44.756Z,91.30
2018-01-06T01:06:12.172Z,91.10
2018-01-06T01:08:39.592Z,91.40
2018-01-06T01:11:07.014Z,91.20
2018-01-06T01:13:34.508Z,91.00
2018-01-06T01:16:01.944Z,91.20
2018-01-06T01:18:29.367Z,91.10
2018-01-06T01:20:56.775Z,91.20
2018-01-06T01:23:24.196Z,91.20
2018-01-06T01:25:51.607Z,91.20
2018-01-06T01:28:19.028Z,91.20
2018-01-06T01:30:46.448Z,91.30
2018-01-06T01:33:13.868Z,91.30
2018-01-06T01:35:41.279Z,91.30
2018-01-06T01:38:08.704Z,91.20
2018-01-06T01:40:36.224Z,91.20
2018-01-06T01:43:03.649Z,91.20
2018-01-06T01:45:31.060Z,91.30
2018-01-06T01:47:58.484Z,91.30
2018-01-06T01:50:26.008Z,91.20
2018-01-06T01:52:53.431Z,91.20
2018-01-06T01:55:20.945Z,91.30
2018-01-06T01:57:48.367Z,91.30
2018-01-06T02:00:15.780Z,91.30
2018-01-06T02:02:43.197Z,91.30
2018-01-06T02:05:10.628Z,91.40
2018-01-06T02:07:38.056Z,91.30
2018-01-06T02:10:06.275Z,91.30
2018-01-06T02:12:33.743Z,91.30
2018-01-06T02:15:01.164Z,91.30
2018-01-06T02:17:28.601Z,91.40
2018-01-06T02:19:56.048Z,91.40
2018-01-06T02:22:23.548Z,91.30
2018-01-06T02:24:50.971Z,91.40
2018-01-06T02:27:19.167Z,91.50
2018-01-06T02:29:46.660Z,91.40
2018-01-06T02:32:14.120Z,91.40
2018-01-06T02:34:41.539Z,91.40
2018-01-06T02:37:08.952Z,91.30
2018-01-06T02:39:36.439Z,91.30
2018-01-06T02:42:03.892Z,91.30
2018-01-06T02:44:31.317Z,91.30
2018-01-06T02:46:58.741Z,91.30
2018-01-06T02:49:26.171Z,91.20
2018-01-06T02:51:53.571Z,91.20
2018-01-06T02:54:20.996Z,91.30
2018-01-06T02:56:48.516Z,91.40
2018-01-06T02:59:15.983Z,91.40
2018-01-06T03:01:43.392Z,91.40
2018-01-06T03:04:10.804Z,91.40
2018-01-06T03:06:38.227Z,91.50
2018-01-06T03:09:05.643Z,91.40
2018-01-06T03:11:33.064Z,91.30
2018-01-06T03:14:00.496Z,91.40
2018-01-06T03:16:27.919Z,91.40
2018-01-06T03:18:55.335Z,91.50
2018-01-06T03:21:22.796Z,91.60
2018-01-06T03:23:50.215Z,91.50
2018-01-06T03:26:17.635Z,91.50
2018-01-06T03:28:45.055Z,91.40
2018-01-06T03:31:12.490Z,91.40
2018-01-06T03:33:39.915Z,91.40
2018-01-06T03:36:08.130Z,91.50
2018-01-06T03:38:35.597Z,91.50
2018-01-06T03:41:03.020Z,91.50
2018-01-06T03:43:30.544Z,91.50
2018-01-06T03:45:57.963Z,91.50
2018-01-06T03:48:25.477Z,91.60
2018-01-06T03:50:52.900Z,91.60
2018-01-06T03:53:20.416Z,91.50
2018-01-06T03:55:47.839Z,91.60
2018-01-06T03:58:15.357Z,91.60
2018-01-06T04:00:42.775Z,91.60
2018-01-06T04:03:10.199Z,91.60
2018-01-06T04:05:37.615Z,91.60
2018-01-06T04:08:05.044Z,91.60
2018-01-06T04:10:32.459Z,91.70
2018-01-06T04:13:00.832Z,91.60
2018-01-06T04:15:28.247Z,91.50
2018-01-06T04:17:55.735Z,91.70
2018-01-06T04:20:23.160Z,91.60
2018-01-06T04:22:50.575Z,91.70
2018-01-06T04:25:17.992Z,91.70
2018-01-06T04:27:45.423Z,91.60
2018-01-06T04:30:12.847Z,91.60
2018-01-06T04:32:41.216Z,91.60
2018-01-06T04:35:08.632Z,91.60
2018-01-06T04:37:36.056Z,91.60
2018-01-06T04:40:03.475Z,91.60
2018-01-06T04:42:30.910Z,91.60
2018-01-06T04:44:58.411Z,91.50
2018-01-06T04:47:25.831Z,91.60
2018-01-06T04:49:54.064Z,91.50
2018-01-06T04:52:21.483Z,91.50
2018-01-06T04:54:49.009Z,91.50
2018-01-06T04:57:16.481Z,91.50
2018-01-06T04:59:43.895Z,91.60
2018-01-06T05:02:11.525Z,91.50
2018-01-06T05:04:38.923Z,91.50
2018-01-06T05:07:06.452Z,91.50
2018-01-06T05:09:33.881Z,91.50
2018-01-06T05:12:01.301Z,91.50
2018-01-06T05:14:28.763Z,91.40
2018-01-06T05:16:56.232Z,91.50
2018-01-06T05:19:23.660Z,91.50
2018-01-06T05:21:51.072Z,91.50
2018-01-06T05:24:18.541Z,91.50
2018-01-06T05:26:45.968Z,91.60
2018-01-06T05:29:13.382Z,91.50
2018-01-06T05:31:40.855Z,91.60
2018-01-06T05:34:08.316Z,91.60
2018-01-06T05:36:35.732Z,91.60
2018-01-06T05:39:03.167Z,91.60
2018-01-06T05:41:30.627Z,91.60
2018-01-06T05:43:58.055Z,91.60
2018-01-06T05:46:25.480Z,91.60
2018-01-06T05:48:52.935Z,91.60
2018-01-06T05:51:20.355Z,91.70
2018-01-06T05:53:47.875Z,91.70
2018-01-06T05:56:15.353Z,91.80
2018-01-06T05:58:42.780Z,91.90
2018-01-06T06:01:11.004Z,91.80
2018-01-06T06:03:38.423Z,91.80
2018-01-06T06:06:05.940Z,91.80
2018-01-06T06:08:33.356Z,91.80
2018-01-06T06:11:00.788Z,91.70
2018-01-06T06:13:28.203Z,91.80
2018-01-06T06:15:55.711Z,91.80
2018-01-06T06:18:23.139Z,91.70
2018-01-06T06:20:50.651Z,91.70
2018-01-06T06:23:18.076Z,91.70
2018-01-06T06:25:45.504Z,91.90
2018-01-06T06:28:12.923Z,91.40
2018-01-06T06:30:40.416Z,91.30
2018-01-06T06:33:08.593Z,91.20
2018-01-06T06:35:36.783Z,91.10
2018-01-06T06:38:04.968Z,91.10
2018-01-06T06:40:33.164Z,91.20
2018-01-06T06:43:01.585Z,91.20
2018-01-06T06:45:29.004Z,91.20
2018-01-06T06:47:57.227Z,91.60
2018-01-06T06:50:24.691Z,91.30
2018-01-06T06:52:52.211Z,91.30
2018-01-06T06:55:19.599Z,91.30
2018-01-06T06:57:47.105Z,91.40
2018-01-06T07:00:14.556Z,91.30
2018-01-06T07:02:42.087Z,91.30
2018-01-06T07:05:09.507Z,91.30
2018-01-06T07:07:36.940Z,91.30
2018-01-06T07:10:04.456Z,91.30
2018-01-06T07:12:31.889Z,91.10
2018-01-06T07:14:59.505Z,91.20
2018-01-06T07:17:26.907Z,91.30
2018-01-06T07:19:54.332Z,91.30
2018-01-06T07:22:21.760Z,91.30
2018-01-06T07:24:49.188Z,91.30
2018-01-06T07:27:16.652Z,91.30
2018-01-06T07:29:44.166Z,91.40
2018-01-06T07:32:11.896Z,91.30
2018-01-06T07:34:39.316Z,91.30
2018-01-06T07:37:06.753Z,91.30
2018-01-06T07:39:34.176Z,91.40
2018-01-06T07:42:02.364Z,91.50
2018-01-06T07:44:29.848Z,91.40
2018-01-06T07:46:57.276Z,91.50
2018-01-06T07:49:24.700Z,91.50
2018-01-06T07:51:52.128Z,91.50
2018-01-06T07:54:20.345Z,91.50
2018-01-06T07:56:47.762Z,91.50
2018-01-06T07:59:15.199Z,91.50
2018-01-06T08:01:43.611Z,91.60
2018-01-06T08:04:11.149Z,91.60
2018-01-06T08:06:38.574Z,91.60
2018-01-06T08:09:06.088Z,91.60
2018-01-06T08:11:33.511Z,91.70
2018-01-06T08:14:00.992Z,91.70
2018-01-06T08:16:29.211Z,92.10
2018-01-06T08:18:56.643Z,91.90
2018-01-06T08:21:24.063Z,91.90
2018-01-06T08:23:51.523Z,91.90
2018-01-06T08:26:18.952Z,91.90
2018-01-06T08:28:46.459Z,92.00
2018-01-06T08:31:13.888Z,91.90
2018-01-06T08:33:41.315Z,92.00
2018-01-06T08:36:08.743Z,92.00
2018-01-06T08:38:36.931Z,92.10
2018-01-06T08:41:05.124Z,92.10
2018-01-06T08:43:32.555Z,92.10
2018-01-06T08:46:00.077Z,92.20
2018-01-06T08:48:27.508Z,92.20
2018-01-06T08:50:54.928Z,92.20
2018-01-06T08:53:22.348Z,92.10
2018-01-06T08:55:49.866Z,92.20
2018-01-06T08:58:17.345Z,92.20
2018-01-06T09:00:44.794Z,92.30
2018-01-06T09:03:12.217Z,92.30
2018-01-06T09:05:39.640Z,92.30
2018-01-06T09:08:07.060Z,92.30
2018-01-06T09:10:34.576Z,92.30
2018-01-06T09:13:02.904Z,92.60
2018-01-06T09:15:30.335Z,92.20
2018-01-06T09:17:57.760Z,92.20
2018-01-06T09:20:25.275Z,92.20
2018-01-06T09:22:52.707Z,92.20
2018-01-06T09:25:20.136Z,92.10
2018-01-06T09:27:47.580Z,92.20
2018-01-06T09:30:15.018Z,92.10
2018-01-06T09:32:43.200Z,92.50
2018-01-06T09:35:11.452Z,92.10
2018-01-06T09:37:39.583Z,92.10
2018-01-06T09:40:07.905Z,92.10
2018-01-06T09:42:35.320Z,92.10
2018-01-06T09:45:02.748Z,92.00
2018-01-06T09:47:30.171Z,92.00
2018-01-06T09:49:58.380Z,92.00
2018-01-06T09:52:25.864Z,92.00
2018-01-06T09:54:53.309Z,92.10
2018-01-06T09:57:21.492Z,92.00
2018-01-06T09:59:49.679Z,91.90
2018-01-06T10:02:17.888Z,91.60
2018-01-06T10:04:45.308Z,91.60
2018-01-06T10:07:12.740Z,91.60
2018-01-06T10:09:40.162Z,91.50
2018-01-06T10:12:07.589Z,91.60
2018-01-06T10:14:35.013Z,91.10
2018-01-06T10:17:03.219Z,91.10
2018-01-06T10:19:30.793Z,91.00
2018-01-06T10:21:58.964Z,91.00
2018-01-06T10:24:27.177Z,90.90
2018-01-06T10:26:54.640Z,90.90
2018-01-06T10:29:22.056Z,91.00
2018-01-06T10:31:49.580Z,90.50
2018-01-06T10:34:17.043Z,90.20
2018-01-06T10:36:44.512Z,90.10
2018-01-06T10:39:11.947Z,90.30
2018-01-06T10:41:40.140Z,90.40
2018-01-06T10:44:08.324Z,90.20
2018-01-06T10:46:36.527Z,89.90
2018-01-06T10:49:04.748Z,90.00
2018-01-06T10:51:32.916Z,89.90
2018-01-06T10:54:00.336Z,89.90
2018-01-06T10:56:27.763Z,90.20
2018-01-06T10:58:55.183Z,90.20
2018-01-06T11:01:28.436Z,90.20
2018-01-06T11:03:55.918Z,90.10
2018-01-06T11:06:24.055Z,90.70
2018-01-06T11:08:52.264Z,90.40
2018-01-06T11:11:19.692Z,90.40
2018-01-06T11:13:47.222Z,90.40
2018-01-06T11:16:14.636Z,90.40
2018-01-06T11:18:42.073Z,90.20
2018-01-06T11:21:09.499Z,90.20
2018-01-06T11:23:37.687Z,90.20
2018-01-06T11:26:05.876Z,90.40
2018-01-06T11:28:33.312Z,90.30
2018-01-06T11:31:00.740Z,90.50
2018-01-06T11:33:28.160Z,90.60
2018-01-06T11:35:55.592Z,90.60
2018-01-06T11:38:23.020Z,90.50
2018-01-06T11:40:50.524Z,90.50
2018-01-06T11:43:17.980Z,90.40
2018-01-06T11:45:45.424Z,90.60
2018-01-06T11:48:13.615Z,90.80
2018-01-06T11:50:41.058Z,90.80
2018-01-06T11:53:08.483Z,90.90
2018-01-06T11:55:35.921Z,90.50
2018-01-06T11:58:04.125Z,90.30
2018-01-06T12:00:31.604Z,90.30
2018-01-06T12:02:59.264Z,90.30
2018-01-06T12:05:26.732Z,90.30
2018-01-06T12:07:54.283Z,90.20
2018-01-06T12:10:22.477Z,90.10
2018-01-06T12:12:50.664Z,89.50
2018-01-06T12:15:18.976Z,89.70
2018-01-06T12:17:47.144Z,90.00
2018-01-06T12:20:15.340Z,90.50
2018-01-06T12:22:42.833Z,90.20
2018-01-06T12:25:10.255Z,90.10
2018-01-06T12:27:38.483Z,90.10
2018-01-06T12:30:05.948Z,90.10
2018-01-06T12:32:33.376Z,90.10
2018-01-06T12:35:00.805Z,90.20
2018-01-06T12:37:28.256Z,90.40
2018-01-06T12:39:55.679Z,90.30
2018-01-06T12:42:23.108Z,90.40
2018-01-06T12:44:51.588Z,90.20
2018-01-06T12:47:19.012Z,89.80
2018-01-06T12:49:46.436Z,89.90
2018-01-06T12:52:13.896Z,88.50
2018-01-06T12:54:41.421Z,88.00
2018-01-06T12:57:08.843Z,88.00
2018-01-06T12:59:36.304Z,87.50
2018-01-06T13:02:03.736Z,87.80
2018-01-06T13:04:31.928Z,89.30
2018-01-06T13:07:00.127Z,89.60
2018-01-06T13:09:27.614Z,89.60
2018-01-06T13:11:55.087Z,89.50
2018-01-06T13:14:22.513Z,89.70
2018-01-06T13:16:49.943Z,89.90
2018-01-06T13:19:17.367Z,89.90
2018-01-06T13:21:45.579Z,90.10
2018-01-06T13:24:13.004Z,90.10
2018-01-06T13:26:40.516Z,90.20
2018-01-06T13:29:07.940Z,90.00
2018-01-06T13:31:35.463Z,90.20
2018-01-06T13:34:02.871Z,90.30
2018-01-06T13:36:30.400Z,90.40
2018-01-06T13:38:57.820Z,90.40
2018-01-06T13:41:25.344Z,90.40
2018-01-06T13:43:52.807Z,90.40
2018-01-06T13:46:20.255Z,90.40
2018-01-06T13:48:48.463Z,90.50
2018-01-06T13:51:15.936Z,90.50
2018-01-06T13:53:43.363Z,90.60
2018-01-06T13:56:11.592Z,91.10
2018-01-06T13:58:39.024Z,90.80
2018-01-06T14:01:07.216Z,90.80
2018-01-06T14:03:35.431Z,90.80
2018-01-06T14:06:03.608Z,90.80
2018-01-06T14:08:31.088Z,90.80
2018-01-06T14:10:58.530Z,90.90
2018-01-06T14:13:26.728Z,91.20
2018-01-06T14:15:54.155Z,90.90
2018-01-06T14:18:21.688Z,91.00
2018-01-06T14:20:49.112Z,91.00
2018-01-06T14:23:16.552Z,91.10
2018-01-06T14:25:43.975Z,91.10
2018-01-06T14:28:11.568Z,91.60
2018-01-06T14:30:38.987Z,91.60
2018-01-06T14:33:06.423Z,91.60
2018-01-06T14:35:33.845Z,91.70
2018-01-06T14:38:02.056Z,91.80
2018-01-06T14:40:29.631Z,91.80
2018-01-06T14:42:57.828Z,91.90
2018-01-06T14:45:25.283Z,91.90
2018-01-06T14:47:52.715Z,91.90
2018-01-06T14:50:20.135Z,91.90
2018-01-06T14:52:47.572Z,92.20
2018-01-06T14:55:15.759Z,91.90
2018-01-06T14:57:43.948Z,91.90
2018-01-06T15:00:12.155Z,91.90
2018-01-06T15:02:39.575Z,91.90
2018-01-06T15:05:07.006Z,91.90
2018-01-06T15:07:34.424Z,92.00
2018-01-06T15:10:02.624Z,92.30
2018-01-06T15:12:30.811Z,92.00
2018-01-06T15:14:59.008Z,92.10
2018-01-06T15:17:26.496Z,92.10
2018-01-06T15:19:53.960Z,92.20
2018-01-06T15:22:21.386Z,92.10
2018-01-06T15:24:48.899Z,92.10
2018-01-06T15:27:16.368Z,92.20
2018-01-06T15:29:43.795Z,92.20
2018-01-06T15:32:11.214Z,92.20
2018-01-06T15:34:38.650Z,92.20
2018-01-06T15:37:06.839Z,92.20
2018-01-06T15:39:35.040Z,92.20
2018-01-06T15:42:02.528Z,92.20
2018-01-06T15:44:29.967Z,92.20
2018-01-06T15:46:58.151Z,92.30
2018-01-06T15:49:26.360Z,92.30
2018-01-06T15:51:53.783Z,92.30
2018-01-06T15:54:22.732Z,92.30
2018-01-06T15:56:50.147Z,92.30
2018-01-06T15:59:17.680Z,92.30
2018-01-06T16:01:45.144Z,92.30
2018-01-06T16:04:12.564Z,92.30
2018-01-06T16:06:39.995Z,92.30
2018-01-06T16:09:07.427Z,92.30
2018-01-06T16:11:35.620Z,92.40
2018-01-06T16:14:03.827Z,92.40
2018-01-06T16:16:31.293Z,92.30
2018-01-06T16:18:58.719Z,92.30
2018-01-06T16:21:26.241Z,92.40
2018-01-06T16:23:53.655Z,92.40
2018-01-06T16:26:21.084Z,92.50
2018-01-06T16:28:48.499Z,92.40
2018-01-06T16:31:16.704Z,92.50
2018-01-06T16:33:44.915Z,92.20
2018-01-06T16:36:12.345Z,92.20
2018-01-06T16:38:40.568Z,92.20
2018-01-06T16:41:07.992Z,92.20
2018-01-06T16:43:35.415Z,92.20
2018-01-06T16:46:02.836Z,92.10
2018-01-06T16:48:30.354Z,92.10
2018-01-06T16:50:57.771Z,92.40
2018-01-06T16:53:25.291Z,92.10
2018-01-06T16:55:52.708Z,92.10
2018-01-06T16:58:20.191Z,92.20
2018-01-06T17:00:47.645Z,92.20
2018-01-06T17:03:15.032Z,92.10
2018-01-06T17:05:43.248Z,92.50
2018-01-06T17:08:10.703Z,92.20
2018-01-06T17:10:38.123Z,92.20
2018-01-06T17:13:06.523Z,92.20
2018-01-06T17:15:34.051Z,92.20
2018-01-06T17:18:01.483Z,92.20
2018-01-06T17:20:28.900Z,92.20
2018-01-06T17:22:56.327Z,92.10
2018-01-06T17:25:24.520Z,91.30
2018-01-06T17:27:52.706Z,90.80
2018-01-06T17:30:20.891Z,90.70
2018-01-06T17:32:49.108Z,90.40
2018-01-06T17:35:16.522Z,90.40
2018-01-06T17:37:44.088Z,90.40
2018-01-06T17:40:11.552Z,90.40
2018-01-06T17:42:39.085Z,90.40
2018-01-06T17:45:06.561Z,90.40
2018-01-06T17:47:33.979Z,90.40
2018-01-06T17:50:01.404Z,90.40
2018-01-06T17:52:28.832Z,90.50
2018-01-06T17:54:57.026Z,90.60
2018-01-06T17:57:25.205Z,90.60
2018-01-06T17:59:53.391Z,90.70
2018-01-06T18:02:21.572Z,90.60
2018-01-06T18:04:48.999Z,90.60
2018-01-06T18:07:16.452Z,90.60
2018-01-06T18:09:43.922Z,90.30
2018-01-06T18:12:11.592Z,90.30
2018-01-06T18:14:39.015Z,90.30
2018-01-06T18:17:06.435Z,90.30
2018-01-06T18:19:33.866Z,90.30
2018-01-06T18:22:02.084Z,90.30
2018-01-06T18:24:29.507Z,90.30
2018-01-06T18:26:57.024Z,90.40
2018-01-06T18:29:24.492Z,90.40
2018-01-06T18:31:51.965Z,90.30
2018-01-06T18:34:19.383Z,90.30
2018-01-06T18:36:46.802Z,90.30
2018-01-06T18:39:14.271Z,90.30
2018-01-06T18:41:41.741Z,90.50
2018-01-06T18:44:09.164Z,90.10
2018-01-06T18:46:36.600Z,90.00
2018-01-06T18:49:04.170Z,90.00
2018-01-06T18:51:31.581Z,90.00
2018-01-06T18:53:58.995Z,90.10
2018-01-06T18:56:26.458Z,90.20
2018-01-06T18:58:54.620Z,90.20
2018-01-06T19:01:22.803Z,90.20
2018-01-06T19:03:50.984Z,90.20
2018-01-06T19:06:19.172Z,90.60
2018-01-06T19:08:47.389Z,90.50
2018-01-06T19:11:14.868Z,90.40
2018-01-06T19:13:42.336Z,90.40
2018-01-06T19:16:09.759Z,90.40
2018-01-06T19:18:37.264Z,90.40
2018-01-06T19:21:04.739Z,90.50
2018-01-06T19:23:32.157Z,90.30
2018-01-06T19:25:59.581Z,90.50
2018-01-06T19:28:26.996Z,90.60
2018-01-06T19:30:54.415Z,90.60
2018-01-06T19:33:21.836Z,90.70
2018-01-06T19:35:49.264Z,90.70
2018-01-06T19:38:16.720Z,90.70
2018-01-06T19:40:44.196Z,90.70
2018-01-06T19:43:11.610Z,90.70
2018-01-06T19:45:40.569Z,90.70
2018-01-06T19:48:07.992Z,90.70
2018-01-06T19:50:35.404Z,90.70
2018-01-06T19:53:03.800Z,90.70
2018-01-06T19:55:31.220Z,90.80
2018-01-06T19:57:59.412Z,90.80
2018-01-06T20:00:26.922Z,90.80
2018-01-06T20:02:55.092Z,90.80
2018-01-06T20:05:23.270Z,90.90
2018-01-06T20:07:51.454Z,90.90
2018-01-06T20:10:19.668Z,90.90
2018-01-06T20:12:47.095Z,90.90
2018-01-06T20:15:14.608Z,90.90
2018-01-06T20:17:42.031Z,90.90
2018-01-06T20:20:09.543Z,90.90
2018-01-06T20:22:37.020Z,90.90
2018-01-06T20:25:04.435Z,90.90
2018-01-06T20:27:31.961Z,90.90
2018-01-06T20:29:59.367Z,90.90
2018-01-06T20:32:26.896Z,90.90
2018-01-06T20:34:55.081Z,90.90
2018-01-06T20:37:22.503Z,90.90
2018-01-06T20:39:49.923Z,90.90
2018-01-06T20:42:17.344Z,91.00
2018-01-06T20:44:44.756Z,90.90
2018-01-06T20:47:12.180Z,90.90
2018-01-06T20:49:39.697Z,90.90
2018-01-06T20:52:07.168Z,90.80
2018-01-06T20:54:34.644Z,90.80
2018-01-06T20:57:02.056Z,90.80
2018-01-06T20:59:29.484Z,90.80
2018-01-06T21:01:56.901Z,90.80
2018-01-06T21:04:24.323Z,90.90
2018-01-06T21:06:51.743Z,90.90
2018-01-06T21:09:19.167Z,90.90
2018-01-06T21:11:46.630Z,90.90
2018-01-06T21:14:14.089Z,90.90
2018-01-06T21:16:41.695Z,90.70
2018-01-06T21:19:09.116Z,90.80
2018-01-06T21:21:36.536Z,90.80
2018-01-06T21:24:04.064Z,90.70
2018-01-06T21:26:31.477Z,90.80
2018-01-06T21:28:59.008Z,90.80
2018-01-06T21:31:26.476Z,90.80
2018-01-06T21:33:53.948Z,90.80
2018-01-06T21:36:21.419Z,90.80
2018-01-06T21:38:48.884Z,90.80
2018-01-06T21:41:16.300Z,90.90
2018-01-06T21:43:43.731Z,90.90
2018-01-06T21:46:11.203Z,90.80
2018-01-06T21:48:38.620Z,90.90
2018-01-06T21:51:06.043Z,90.80
2018-01-06T21:53:33.504Z,90.90
2018-01-06T21:56:00.978Z,90.80
2018-01-06T21:58:28.443Z,90.80
2018-01-06T22:00:55.859Z,90.80
2018-01-06T22:03:24.098Z,90.80
2018-01-06T22:05:51.522Z,90.80
2018-01-06T22:08:19.035Z,90.80
2018-01-06T22:10:46.455Z,90.80
2018-01-06T22:13:13.871Z,90.90
2018-01-06T22:15:41.296Z,90.90
2018-01-06T22:18:08.812Z,90.90
2018-01-06T22:20:36.240Z,91.00
2018-01-06T22:23:03.659Z,90.90
2018-01-06T22:25:31.102Z,90.90
2018-01-06T22:27:59.279Z,90.80
2018-01-06T22:30:27.463Z,90.90
2018-01-06T22:32:55.648Z,91.00
2018-01-06T22:35:23.064Z,90.90
2018-01-06T22:37:50.484Z,91.00
2018-01-06T22:40:17.996Z,90.90
2018-01-06T22:42:45.412Z,90.90
2018-01-06T22:45:12.932Z,90.90
2018-01-06T22:47:40.355Z,90.90
2018-01-06T22:50:07.772Z,90.80
2018-01-06T22:52:35.235Z,90.90
2018-01-06T22:55:02.705Z,90.80
2018-01-06T22:57:30.175Z,90.90
2018-01-06T22:59:57.653Z,91.00
2018-01-06T23:02:25.084Z,90.90
2018-01-06T23:04:53.303Z,90.90
2018-01-06T23:07:20.731Z,90.90
2018-01-06T23:09:48.911Z,90.80
2018-01-06T23:12:16.336Z,91.00
2018-01-06T23:14:43.751Z,90.90
2018-01-06T23:17:11.171Z,90.90
2018-01-06T23:19:38.587Z,90.90
2018-01-06T23:22:06.003Z,90.90
2018-01-06T23:24:33.416Z,91.00
2018-01-06T23:27:00.836Z,91.00
2018-01-06T23:29:28.305Z,91.00
2018-01-06T23:31:55.981Z,91.00
2018-01-06T23:34:24.139Z,91.00
2018-01-06T23:36:52.327Z,91.00
2018-01-06T23:39:20.512Z,91.00
2018-01-06T23:41:48.732Z,91.10
2018-01-06T23:44:16.143Z,91.00
2018-01-06T23:46:43.667Z,91.10
2018-01-06T23:49:11.091Z,91.10
2018-01-06T23:51:39.273Z,91.10
2018-01-06T23:54:06.840Z,91.10
2018-01-06T23:56:34.256Z,91.10
2018-01-06T23:59:01.672Z,91.10
